sensor_id;sensor_type;location;lat;lon;timestamp;pressure;altitude;pressure_sealevel;temperature;humidity
50684;BME280;36654;45.042;38.994;2023-02-14T00:01:57;102177.31;;;0.15;64.50
50684;BME280;36654;45.042;38.994;2023-02-14T00:04:23;102180.88;;;0.15;64.32
50684;BME280;36654;45.042;38.994;2023-02-14T00:06:49;102198.66;;;0.21;64.10
50684;BME280;36654;45.042;38.994;2023-02-14T00:09:16;102187.56;;;0.24;64.04
50684;BME280;36654;45.042;38.994;2023-02-14T00:11:42;102160.78;;;0.26;63.99
50684;BME280;36654;45.042;38.994;2023-02-14T00:14:08;102091.13;;;-0.10;63.76
50684;BME280;36654;45.042;38.994;2023-02-14T00:16:53;102107.94;;;0.05;63.58
50684;BME280;36654;45.042;38.994;2023-02-14T00:19:19;102109.06;;;0.09;63.32
50684;BME280;36654;45.042;38.994;2023-02-14T00:21:46;102144.00;;;0.34;63.23
50684;BME280;36654;45.042;38.994;2023-02-14T00:24:15;102139.94;;;0.38;63.23
50684;BME280;36654;45.042;38.994;2023-02-14T00:26:41;102122.03;;;0.31;62.86
50684;BME280;36654;45.042;38.994;2023-02-14T00:29:09;102131.44;;;0.29;63.01
50684;BME280;36654;45.042;38.994;2023-02-14T00:31:36;102129.06;;;0.43;62.84
50684;BME280;36654;45.042;38.994;2023-02-14T00:34:03;102100.69;;;0.36;62.40
50684;BME280;36654;45.042;38.994;2023-02-14T00:36:29;102119.28;;;0.41;62.39
50684;BME280;36654;45.042;38.994;2023-02-14T00:38:54;102124.19;;;0.48;62.43
50684;BME280;36654;45.042;38.994;2023-02-14T00:41:20;102109.53;;;0.50;62.48
50684;BME280;36654;45.042;38.994;2023-02-14T00:43:47;102103.41;;;0.50;62.04
50684;BME280;36654;45.042;38.994;2023-02-14T00:46:14;102109.09;;;0.56;61.79
50684;BME280;36654;45.042;38.994;2023-02-14T00:48:40;102107.59;;;0.59;61.61
50684;BME280;36654;45.042;38.994;2023-02-14T00:51:06;102078.88;;;0.59;61.64
50684;BME280;36654;45.042;38.994;2023-02-14T00:53:32;102088.09;;;0.54;61.73
50684;BME280;36654;45.042;38.994;2023-02-14T00:55:57;102025.38;;;0.29;61.37
50684;BME280;36654;45.042;38.994;2023-02-14T00:58:23;102079.56;;;0.69;61.36
50684;BME280;36654;45.042;38.994;2023-02-14T01:00:48;102065.25;;;0.75;61.00
50684;BME280;36654;45.042;38.994;2023-02-14T01:03:14;102069.66;;;0.76;60.94
50684;BME280;36654;45.042;38.994;2023-02-14T01:05:40;102037.78;;;0.69;61.12
50684;BME280;36654;45.042;38.994;2023-02-14T01:08:05;102053.78;;;0.85;60.77
50684;BME280;36654;45.042;38.994;2023-02-14T01:10:31;101984.28;;;0.50;61.03
50684;BME280;36654;45.042;38.994;2023-02-14T01:12:57;102038.19;;;0.86;61.30
50684;BME280;36654;45.042;38.994;2023-02-14T01:15:22;102025.25;;;0.88;61.25
50684;BME280;36654;45.042;38.994;2023-02-14T01:17:48;102010.72;;;0.80;61.15
50684;BME280;36654;45.042;38.994;2023-02-14T01:20:33;102027.50;;;0.95;61.18
50684;BME280;36654;45.042;38.994;2023-02-14T01:22:58;102023.97;;;0.95;61.13
50684;BME280;36654;45.042;38.994;2023-02-14T01:25:24;102010.00;;;0.94;61.31
50684;BME280;36654;45.042;38.994;2023-02-14T01:27:50;102003.41;;;0.99;61.11
50684;BME280;36654;45.042;38.994;2023-02-14T01:30:16;102000.63;;;1.10;61.19
50684;BME280;36654;45.042;38.994;2023-02-14T01:32:41;102003.69;;;1.16;60.96
50684;BME280;36654;45.042;38.994;2023-02-14T01:35:08;102006.09;;;1.13;61.03
50684;BME280;36654;45.042;38.994;2023-02-14T01:37:34;101985.19;;;1.13;60.88
50684;BME280;36654;45.042;38.994;2023-02-14T01:40:00;101986.09;;;1.13;61.29
50684;BME280;36654;45.042;38.994;2023-02-14T01:42:26;101990.13;;;1.21;61.62
50684;BME280;36654;45.042;38.994;2023-02-14T01:47:20;101991.47;;;1.28;61.61
50684;BME280;36654;45.042;38.994;2023-02-14T01:49:49;101966.50;;;1.20;61.87
50684;BME280;36654;45.042;38.994;2023-02-14T01:52:19;101974.41;;;1.33;62.04
50684;BME280;36654;45.042;38.994;2023-02-14T01:54:57;101961.66;;;1.38;62.37
50684;BME280;36654;45.042;38.994;2023-02-14T01:57:29;101901.47;;;0.98;62.59
50684;BME280;36654;45.042;38.994;2023-02-14T01:59:59;101963.75;;;1.30;62.52
50684;BME280;36654;45.042;38.994;2023-02-14T02:02:45;101960.53;;;1.34;62.97
50684;BME280;36654;45.042;38.994;2023-02-14T02:05:12;101882.44;;;0.87;63.16
50684;BME280;36654;45.042;38.994;2023-02-14T02:07:40;101946.75;;;1.23;63.33
50684;BME280;36654;45.042;38.994;2023-02-14T02:10:06;101956.69;;;1.29;63.64
50684;BME280;36654;45.042;38.994;2023-02-14T02:12:33;101934.56;;;1.24;64.17
50684;BME280;36654;45.042;38.994;2023-02-14T02:15:03;101888.09;;;0.93;64.28
50684;BME280;36654;45.042;38.994;2023-02-14T02:18:02;101949.88;;;1.31;64.48
50684;BME280;36654;45.042;38.994;2023-02-14T02:46:51;101920.56;;;1.62;66.94
50684;BME280;36654;45.042;38.994;2023-02-14T02:49:36;101928.91;;;1.69;67.49
50684;BME280;36654;45.042;38.994;2023-02-14T02:58:26;101922.97;;;1.72;68.71
50684;BME280;36654;45.042;38.994;2023-02-14T03:00:54;101912.94;;;1.78;69.05
50684;BME280;36654;45.042;38.994;2023-02-14T03:03:25;101895.63;;;1.80;69.32
50684;BME280;36654;45.042;38.994;2023-02-14T03:06:11;101896.53;;;1.81;69.58
50684;BME280;36654;45.042;38.994;2023-02-14T03:08:36;101872.31;;;1.70;69.66
50684;BME280;36654;45.042;38.994;2023-02-14T03:11:03;101869.88;;;1.86;70.19
50684;BME280;36654;45.042;38.994;2023-02-14T03:13:42;101851.56;;;1.86;70.27
50684;BME280;36654;45.042;38.994;2023-02-14T03:24:56;101861.22;;;1.87;71.19
50684;BME280;36654;45.042;38.994;2023-02-14T03:29:52;101862.03;;;1.86;71.39
50684;BME280;36654;45.042;38.994;2023-02-14T03:32:36;101860.81;;;1.81;71.19
50684;BME280;36654;45.042;38.994;2023-02-14T03:35:08;101858.00;;;1.91;71.31
50684;BME280;36654;45.042;38.994;2023-02-14T03:37:56;101827.84;;;1.83;71.61
50684;BME280;36654;45.042;38.994;2023-02-14T03:40:50;101846.53;;;1.89;71.31
50684;BME280;36654;45.042;38.994;2023-02-14T03:43:26;101825.00;;;1.93;71.37
50684;BME280;36654;45.042;38.994;2023-02-14T03:46:00;101824.19;;;1.94;71.38
50684;BME280;36654;45.042;38.994;2023-02-14T03:48:30;101825.91;;;1.94;71.42
50684;BME280;36654;45.042;38.994;2023-02-14T03:50:57;101795.84;;;1.87;71.28
50684;BME280;36654;45.042;38.994;2023-02-14T03:53:27;101799.94;;;1.97;71.21
50684;BME280;36654;45.042;38.994;2023-02-14T03:55:54;101827.00;;;1.98;71.13
50684;BME280;36654;45.042;38.994;2023-02-14T03:58:51;101821.97;;;2.01;71.18
50684;BME280;36654;45.042;38.994;2023-02-14T04:02:19;101825.38;;;2.00;71.21
50684;BME280;36654;45.042;38.994;2023-02-14T04:04:16;101807.06;;;2.00;71.28
50684;BME280;36654;45.042;38.994;2023-02-14T04:06:43;101813.28;;;2.02;71.03
50684;BME280;36654;45.042;38.994;2023-02-14T04:09:08;101816.72;;;2.01;70.89
50684;BME280;36654;45.042;38.994;2023-02-14T04:11:34;101796.75;;;2.16;70.45
50684;BME280;36654;45.042;38.994;2023-02-14T04:14:01;101800.19;;;2.15;70.24
50684;BME280;36654;45.042;38.994;2023-02-14T04:16:27;101795.72;;;2.27;70.13
50684;BME280;36654;45.042;38.994;2023-02-14T04:18:53;101782.25;;;2.21;70.12
50684;BME280;36654;45.042;38.994;2023-02-14T04:21:37;101767.16;;;2.17;70.29
50684;BME280;36654;45.042;38.994;2023-02-14T04:24:02;101799.72;;;2.35;70.41
50684;BME280;36654;45.042;38.994;2023-02-14T04:26:28;101810.19;;;2.35;70.68
50684;BME280;36654;45.042;38.994;2023-02-14T04:28:54;101777.66;;;2.32;70.69
50684;BME280;36654;45.042;38.994;2023-02-14T04:31:19;101752.59;;;2.35;70.58
50684;BME280;36654;45.042;38.994;2023-02-14T04:33:45;101782.75;;;2.44;70.95
50684;BME280;36654;45.042;38.994;2023-02-14T04:36:13;101776.22;;;2.37;71.21
50684;BME280;36654;45.042;38.994;2023-02-14T04:38:38;101795.94;;;2.45;71.30
50684;BME280;36654;45.042;38.994;2023-02-14T04:41:04;101783.66;;;2.44;71.35
50684;BME280;36654;45.042;38.994;2023-02-14T04:43:30;101791.59;;;2.46;71.63
50684;BME280;36654;45.042;38.994;2023-02-14T04:45:55;101815.16;;;2.46;71.94
50684;BME280;36654;45.042;38.994;2023-02-14T04:48:21;101785.28;;;2.42;72.31
50684;BME280;36654;45.042;38.994;2023-02-14T04:50:53;101782.56;;;2.41;72.12
50684;BME280;36654;45.042;38.994;2023-02-14T04:53:19;101783.66;;;2.44;72.42
50684;BME280;36654;45.042;38.994;2023-02-14T04:55:47;101792.13;;;2.40;72.53
50684;BME280;36654;45.042;38.994;2023-02-14T04:58:13;101734.16;;;2.19;72.53
50684;BME280;36654;45.042;38.994;2023-02-14T05:00:39;101788.09;;;2.45;72.88
50684;BME280;36654;45.042;38.994;2023-02-14T05:03:04;101774.28;;;2.48;72.91
50684;BME280;36654;45.042;38.994;2023-02-14T05:05:30;101758.56;;;2.48;73.05
50684;BME280;36654;45.042;38.994;2023-02-14T05:07:56;101750.25;;;2.40;73.16
50684;BME280;36654;45.042;38.994;2023-02-14T05:10:21;101762.09;;;2.48;73.55
50684;BME280;36654;45.042;38.994;2023-02-14T05:12:47;101759.56;;;2.50;73.68
50684;BME280;36654;45.042;38.994;2023-02-14T05:15:12;101763.81;;;2.48;73.76
50684;BME280;36654;45.042;38.994;2023-02-14T05:17:38;101757.13;;;2.53;74.12
50684;BME280;36654;45.042;38.994;2023-02-14T05:20:04;101746.00;;;2.57;74.32
50684;BME280;36654;45.042;38.994;2023-02-14T05:22:30;101743.75;;;2.48;74.59
50684;BME280;36654;45.042;38.994;2023-02-14T05:24:56;101698.25;;;2.31;74.93
50684;BME280;36654;45.042;38.994;2023-02-14T05:27:21;101739.09;;;2.57;75.26
50684;BME280;36654;45.042;38.994;2023-02-14T05:29:47;101733.91;;;2.59;75.70
50684;BME280;36654;45.042;38.994;2023-02-14T05:32:12;101730.31;;;2.57;76.50
50684;BME280;36654;45.042;38.994;2023-02-14T05:34:38;101734.13;;;2.62;76.51
50684;BME280;36654;45.042;38.994;2023-02-14T05:37:03;101734.03;;;2.61;77.14
50684;BME280;36654;45.042;38.994;2023-02-14T05:39:29;101713.97;;;2.61;77.38
50684;BME280;36654;45.042;38.994;2023-02-14T05:41:54;101716.44;;;2.58;77.77
50684;BME280;36654;45.042;38.994;2023-02-14T05:44:21;101725.28;;;2.60;77.87
50684;BME280;36654;45.042;38.994;2023-02-14T05:46:46;101720.84;;;2.59;78.18
50684;BME280;36654;45.042;38.994;2023-02-14T05:49:12;101691.41;;;2.48;78.47
50684;BME280;36654;45.042;38.994;2023-02-14T05:51:38;101722.44;;;2.57;78.52
50684;BME280;36654;45.042;38.994;2023-02-14T05:54:03;101707.84;;;2.61;78.60
50684;BME280;36654;45.042;38.994;2023-02-14T05:56:29;101713.09;;;2.61;78.58
50684;BME280;36654;45.042;38.994;2023-02-14T05:58:54;101726.28;;;2.62;78.61
50684;BME280;36654;45.042;38.994;2023-02-14T06:01:20;101684.00;;;2.56;78.64
50684;BME280;36654;45.042;38.994;2023-02-14T06:03:45;101715.31;;;2.69;78.63
50684;BME280;36654;45.042;38.994;2023-02-14T06:06:11;101693.94;;;2.62;78.73
50684;BME280;36654;45.042;38.994;2023-02-14T06:08:37;101703.50;;;2.76;78.56
50684;BME280;36654;45.042;38.994;2023-02-14T06:11:02;101694.03;;;2.78;78.31
50684;BME280;36654;45.042;38.994;2023-02-14T06:13:28;101678.38;;;2.79;78.24
50684;BME280;36654;45.042;38.994;2023-02-14T06:15:53;101659.97;;;2.78;78.21
50684;BME280;36654;45.042;38.994;2023-02-14T06:18:19;101666.13;;;2.78;78.01
50684;BME280;36654;45.042;38.994;2023-02-14T06:20:44;101635.06;;;2.85;77.88
50684;BME280;36654;45.042;38.994;2023-02-14T06:23:10;101644.28;;;2.78;77.53
50684;BME280;36654;45.042;38.994;2023-02-14T06:25:36;101613.56;;;2.75;77.32
50684;BME280;36654;45.042;38.994;2023-02-14T06:28:01;101645.28;;;2.96;77.13
50684;BME280;36654;45.042;38.994;2023-02-14T06:30:27;101613.47;;;2.74;76.90
50684;BME280;36654;45.042;38.994;2023-02-14T06:32:54;101646.88;;;3.09;76.64
50684;BME280;36654;45.042;38.994;2023-02-14T06:35:22;101648.88;;;3.13;76.04
50684;BME280;36654;45.042;38.994;2023-02-14T06:37:47;101629.78;;;3.16;75.55
50684;BME280;36654;45.042;38.994;2023-02-14T06:40:28;101638.19;;;3.25;74.78
50684;BME280;36654;45.042;38.994;2023-02-14T06:42:54;101627.34;;;3.19;74.41
50684;BME280;36654;45.042;38.994;2023-02-14T06:45:19;101630.38;;;3.27;73.74
50684;BME280;36654;45.042;38.994;2023-02-14T06:47:45;101626.78;;;3.24;72.90
50684;BME280;36654;45.042;38.994;2023-02-14T06:50:11;101629.50;;;3.42;72.19
50684;BME280;36654;45.042;38.994;2023-02-14T06:52:36;101624.34;;;3.44;71.57
50684;BME280;36654;45.042;38.994;2023-02-14T06:55:02;101624.53;;;3.47;70.82
50684;BME280;36654;45.042;38.994;2023-02-14T06:57:28;101615.97;;;3.51;70.13
50684;BME280;36654;45.042;38.994;2023-02-14T06:59:53;101614.34;;;3.53;69.70
50684;BME280;36654;45.042;38.994;2023-02-14T07:02:19;101605.00;;;3.58;68.51
50684;BME280;36654;45.042;38.994;2023-02-14T07:04:45;101595.25;;;3.56;67.35
50684;BME280;36654;45.042;38.994;2023-02-14T07:07:10;101540.78;;;3.50;65.79
50684;BME280;36654;45.042;38.994;2023-02-14T07:09:36;101563.25;;;3.45;64.65
50684;BME280;36654;45.042;38.994;2023-02-14T07:12:02;101593.94;;;3.80;64.64
50684;BME280;36654;45.042;38.994;2023-02-14T07:14:27;101596.97;;;3.88;64.73
50684;BME280;36654;45.042;38.994;2023-02-14T07:16:53;101591.13;;;3.94;64.40
50684;BME280;36654;45.042;38.994;2023-02-14T07:19:18;101567.44;;;3.92;63.54
50684;BME280;36654;45.042;38.994;2023-02-14T07:21:44;101582.00;;;4.03;63.65
50684;BME280;36654;45.042;38.994;2023-02-14T07:24:09;101557.72;;;4.07;63.31
50684;BME280;36654;45.042;38.994;2023-02-14T07:26:35;101525.75;;;3.98;62.91
50684;BME280;36654;45.042;38.994;2023-02-14T07:29:00;101541.97;;;4.07;63.15
50684;BME280;36654;45.042;38.994;2023-02-14T07:31:26;101544.09;;;4.15;62.29
50684;BME280;36654;45.042;38.994;2023-02-14T07:33:52;101523.09;;;4.15;62.23
50684;BME280;36654;45.042;38.994;2023-02-14T07:36:17;101536.22;;;4.15;62.30
50684;BME280;36654;45.042;38.994;2023-02-14T07:38:43;101530.13;;;4.16;62.33
50684;BME280;36654;45.042;38.994;2023-02-14T07:41:09;101523.25;;;4.18;62.44
50684;BME280;36654;45.042;38.994;2023-02-14T07:43:34;101524.22;;;4.20;62.73
50684;BME280;36654;45.042;38.994;2023-02-14T07:46:01;101514.66;;;4.22;62.26
50684;BME280;36654;45.042;38.994;2023-02-14T07:48:27;101501.78;;;4.26;61.92
50684;BME280;36654;45.042;38.994;2023-02-14T07:50:53;101511.47;;;4.27;62.07
50684;BME280;36654;45.042;38.994;2023-02-14T07:53:22;101508.25;;;4.33;61.86
50684;BME280;36654;45.042;38.994;2023-02-14T07:55:49;101490.91;;;4.37;61.73
50684;BME280;36654;45.042;38.994;2023-02-14T07:58:15;101496.38;;;4.41;61.31
50684;BME280;36654;45.042;38.994;2023-02-14T08:00:41;101468.47;;;4.43;60.64
50684;BME280;36654;45.042;38.994;2023-02-14T08:03:07;101456.41;;;4.47;60.43
50684;BME280;36654;45.042;38.994;2023-02-14T08:05:34;101463.34;;;4.46;59.75
50684;BME280;36654;45.042;38.994;2023-02-14T08:08:00;101460.19;;;4.53;59.55
50684;BME280;36654;45.042;38.994;2023-02-14T08:10:25;101440.44;;;4.42;59.84
50684;BME280;36654;45.042;38.994;2023-02-14T08:12:51;101433.81;;;4.50;59.25
50684;BME280;36654;45.042;38.994;2023-02-14T08:15:33;101443.78;;;4.58;59.32
50684;BME280;36654;45.042;38.994;2023-02-14T08:18:18;101429.13;;;4.63;59.13
50684;BME280;36654;45.042;38.994;2023-02-14T08:20:46;101426.00;;;4.71;58.65
50684;BME280;36654;45.042;38.994;2023-02-14T08:23:14;101379.84;;;4.76;58.30
50684;BME280;36654;45.042;38.994;2023-02-14T08:25:40;101430.66;;;4.77;57.41
50684;BME280;36654;45.042;38.994;2023-02-14T08:28:06;101435.22;;;4.81;57.59
50684;BME280;36654;45.042;38.994;2023-02-14T08:30:32;101420.97;;;4.76;57.19
50684;BME280;36654;45.042;38.994;2023-02-14T08:32:59;101408.59;;;4.73;57.39
50684;BME280;36654;45.042;38.994;2023-02-14T08:35:25;101364.28;;;4.62;57.03
50684;BME280;36654;45.042;38.994;2023-02-14T08:37:51;101394.91;;;4.81;57.10
50684;BME280;36654;45.042;38.994;2023-02-14T08:40:19;101398.97;;;4.74;56.45
50684;BME280;36654;45.042;38.994;2023-02-14T08:42:45;101381.91;;;4.84;55.92
50684;BME280;36654;45.042;38.994;2023-02-14T08:45:11;101376.53;;;4.81;55.69
50684;BME280;36654;45.042;38.994;2023-02-14T08:47:37;101400.25;;;4.82;55.27
50684;BME280;36654;45.042;38.994;2023-02-14T08:50:06;101383.66;;;4.83;54.96
50684;BME280;36654;45.042;38.994;2023-02-14T08:52:32;101371.28;;;4.81;54.41
50684;BME280;36654;45.042;38.994;2023-02-14T08:54:58;101343.25;;;4.81;54.29
50684;BME280;36654;45.042;38.994;2023-02-14T08:57:23;101328.59;;;4.86;53.94
50684;BME280;36654;45.042;38.994;2023-02-14T08:59:49;101358.34;;;4.85;54.00
50684;BME280;36654;45.042;38.994;2023-02-14T09:02:14;101275.75;;;4.59;53.85
50684;BME280;36654;45.042;38.994;2023-02-14T09:04:43;101343.34;;;4.83;53.38
50684;BME280;36654;45.042;38.994;2023-02-14T09:07:12;101328.47;;;4.83;53.98
50684;BME280;36654;45.042;38.994;2023-02-14T09:09:38;101330.00;;;4.78;53.81
50684;BME280;36654;45.042;38.994;2023-02-14T09:12:04;101338.97;;;4.83;53.84
50684;BME280;36654;45.042;38.994;2023-02-14T09:14:37;101337.31;;;4.85;54.27
50684;BME280;36654;45.042;38.994;2023-02-14T09:17:03;101319.97;;;4.89;54.35
50684;BME280;36654;45.042;38.994;2023-02-14T09:19:32;101337.66;;;4.93;54.36
50684;BME280;36654;45.042;38.994;2023-02-14T09:22:00;101312.22;;;4.92;54.83
50684;BME280;36654;45.042;38.994;2023-02-14T09:24:34;101323.06;;;5.00;55.16
50684;BME280;36654;45.042;38.994;2023-02-14T09:27:00;101316.13;;;5.02;55.57
50684;BME280;36654;45.042;38.994;2023-02-14T09:29:27;101293.41;;;5.02;55.78
50684;BME280;36654;45.042;38.994;2023-02-14T09:31:57;101249.09;;;4.69;56.63
50684;BME280;36654;45.042;38.994;2023-02-14T09:34:24;101232.25;;;4.85;56.95
50684;BME280;36654;45.042;38.994;2023-02-14T09:36:52;101304.78;;;5.03;57.70
50684;BME280;36654;45.042;38.994;2023-02-14T09:39:37;101287.09;;;4.98;58.07
50684;BME280;36654;45.042;38.994;2023-02-14T09:45:03;101228.00;;;4.68;59.53
50684;BME280;36654;45.042;38.994;2023-02-14T09:50:19;101274.81;;;4.97;60.77
50684;BME280;36654;45.042;38.994;2023-02-14T09:52:51;101172.53;;;4.60;61.04
50684;BME280;36654;45.042;38.994;2023-02-14T09:55:19;101262.34;;;4.93;61.01
50684;BME280;36654;45.042;38.994;2023-02-14T09:58:02;101267.13;;;5.02;61.55
50684;BME280;36654;45.042;38.994;2023-02-14T10:00:36;101253.81;;;4.99;61.56
50684;BME280;36654;45.042;38.994;2023-02-14T10:06:16;101204.56;;;4.93;62.39
50684;BME280;36654;45.042;38.994;2023-02-14T10:11:27;101231.78;;;4.95;62.62
50684;BME280;36654;45.042;38.994;2023-02-14T10:14:04;101221.97;;;4.91;62.84
50684;BME280;36654;45.042;38.994;2023-02-14T10:16:42;101201.41;;;4.81;63.24
50684;BME280;36654;45.042;38.994;2023-02-14T10:19:25;101229.50;;;4.82;63.47
50684;BME280;36654;45.042;38.994;2023-02-14T10:22:01;101228.41;;;4.77;63.81
50684;BME280;36654;45.042;38.994;2023-02-14T10:24:37;101216.81;;;4.72;64.28
50684;BME280;36654;45.042;38.994;2023-02-14T10:29:52;101217.50;;;4.68;64.75
50684;BME280;36654;45.042;38.994;2023-02-14T10:32:29;101207.00;;;4.68;64.95
50684;BME280;36654;45.042;38.994;2023-02-14T10:34:59;101178.91;;;4.46;65.07
50684;BME280;36654;45.042;38.994;2023-02-14T10:47:44;101187.69;;;4.46;67.21
50684;BME280;36654;45.042;38.994;2023-02-14T10:52:28;101165.75;;;4.44;68.11
50684;BME280;36654;45.042;38.994;2023-02-14T10:55:00;101165.25;;;4.33;68.42
50684;BME280;36654;45.042;38.994;2023-02-14T10:57:36;101166.09;;;4.32;68.82
50684;BME280;36654;45.042;38.994;2023-02-14T11:00:23;101156.63;;;4.36;69.24
50684;BME280;36654;45.042;38.994;2023-02-14T11:02:56;101183.63;;;4.33;69.60
50684;BME280;36654;45.042;38.994;2023-02-14T11:05:41;101149.47;;;4.32;69.71
50684;BME280;36654;45.042;38.994;2023-02-14T11:10:42;101117.28;;;4.17;70.52
50684;BME280;36654;45.042;38.994;2023-02-14T11:13:47;101119.72;;;4.12;71.11
50684;BME280;36654;45.042;38.994;2023-02-14T11:16:39;101151.41;;;4.17;71.52
50684;BME280;36654;45.042;38.994;2023-02-14T11:21:37;101064.78;;;3.75;72.14
50684;BME280;36654;45.042;38.994;2023-02-14T11:24:32;101119.53;;;4.07;72.51
50684;BME280;36654;45.042;38.994;2023-02-14T11:27:01;101125.34;;;4.00;72.77
50684;BME280;36654;45.042;38.994;2023-02-14T11:29:32;101145.22;;;4.15;73.28
50684;BME280;36654;45.042;38.994;2023-02-14T11:34:54;101114.66;;;4.17;73.61
50684;BME280;36654;45.042;38.994;2023-02-14T11:39:51;101126.00;;;4.16;73.84
50684;BME280;36654;45.042;38.994;2023-02-14T11:45:00;101132.91;;;4.14;74.45
50684;BME280;36654;45.042;38.994;2023-02-14T11:47:28;101063.38;;;3.83;74.57
50684;BME280;36654;45.042;38.994;2023-02-14T11:50:05;101115.25;;;4.09;74.30
50684;BME280;36654;45.042;38.994;2023-02-14T11:52:44;101090.78;;;4.10;74.63
50684;BME280;36654;45.042;38.994;2023-02-14T11:55:22;101010.25;;;3.67;74.81
50684;BME280;36654;45.042;38.994;2023-02-14T11:57:49;101121.25;;;4.07;74.90
50684;BME280;36654;45.042;38.994;2023-02-14T12:00:16;101082.94;;;3.91;75.17
50684;BME280;36654;45.042;38.994;2023-02-14T12:02:48;101086.19;;;4.05;75.15
50684;BME280;36654;45.042;38.994;2023-02-14T12:05:32;101095.06;;;4.08;75.05
50684;BME280;36654;45.042;38.994;2023-02-14T12:08:01;101012.75;;;3.64;75.14
50684;BME280;36654;45.042;38.994;2023-02-14T12:10:32;101079.06;;;4.02;75.16
50684;BME280;36654;45.042;38.994;2023-02-14T12:24:01;101066.72;;;4.00;75.95
50684;BME280;36654;45.042;38.994;2023-02-14T12:26:37;101062.09;;;3.94;76.22
50684;BME280;36654;45.042;38.994;2023-02-14T12:31:47;100990.28;;;3.50;76.38
50684;BME280;36654;45.042;38.994;2023-02-14T12:34:13;101051.22;;;3.85;76.78
50684;BME280;36654;45.042;38.994;2023-02-14T12:37:22;101063.38;;;3.83;76.95
50684;BME280;36654;45.042;38.994;2023-02-14T12:40:06;101038.59;;;3.76;77.19
50684;BME280;36654;45.042;38.994;2023-02-14T12:46:08;101038.66;;;3.78;77.46
50684;BME280;36654;45.042;38.994;2023-02-14T12:56:49;101010.38;;;3.71;79.19
50684;BME280;36654;45.042;38.994;2023-02-14T13:02:34;101031.28;;;3.69;79.89
50684;BME280;36654;45.042;38.994;2023-02-14T13:11:14;101014.53;;;3.46;81.50
50684;BME280;36654;45.042;38.994;2023-02-14T13:13:56;100968.56;;;3.14;81.71
50684;BME280;36654;45.042;38.994;2023-02-14T13:16:48;100992.91;;;3.31;82.08
50684;BME280;36654;45.042;38.994;2023-02-14T13:21:44;100983.25;;;3.30;82.65
50684;BME280;36654;45.042;38.994;2023-02-14T13:24:17;100901.81;;;2.85;83.24
50684;BME280;36654;45.042;38.994;2023-02-14T13:26:48;101001.06;;;3.17;83.47
50684;BME280;36654;45.042;38.994;2023-02-14T13:29:21;100939.94;;;2.79;83.67
50684;BME280;36654;45.042;38.994;2023-02-14T13:31:56;100991.66;;;3.03;84.27
50684;BME280;36654;45.042;38.994;2023-02-14T13:34:27;101001.31;;;3.04;84.67
50684;BME280;36654;45.042;38.994;2023-02-14T13:36:56;100971.88;;;2.53;85.43
50684;BME280;36654;45.042;38.994;2023-02-14T13:39:37;101034.97;;;2.77;86.16
50684;BME280;36654;45.042;38.994;2023-02-14T13:42:04;100997.53;;;2.79;86.89
50684;BME280;36654;45.042;38.994;2023-02-14T13:44:50;101015.19;;;2.46;87.40
50684;BME280;36654;45.042;38.994;2023-02-14T13:47:19;101032.88;;;2.52;87.95
50684;BME280;36654;45.042;38.994;2023-02-14T13:49:57;100960.56;;;1.99;88.57
50684;BME280;36654;45.042;38.994;2023-02-14T13:57:41;101030.31;;;2.00;90.10
50684;BME280;36654;45.042;38.994;2023-02-14T14:10:50;101022.41;;;1.64;92.47
50684;BME280;36654;45.042;38.994;2023-02-14T14:19:06;101027.34;;;1.58;93.66
50684;BME280;36654;45.042;38.994;2023-02-14T14:22:07;101015.56;;;1.49;93.94
50684;BME280;36654;45.042;38.994;2023-02-14T14:24:37;101004.66;;;1.40;94.42
50684;BME280;36654;45.042;38.994;2023-02-14T14:30:01;101009.88;;;1.40;94.96
50684;BME280;36654;45.042;38.994;2023-02-14T14:32:35;101016.72;;;1.38;95.01
50684;BME280;36654;45.042;38.994;2023-02-14T14:35:15;101008.66;;;1.34;95.27
50684;BME280;36654;45.042;38.994;2023-02-14T14:40:27;101013.56;;;1.27;95.66
50684;BME280;36654;45.042;38.994;2023-02-14T14:42:58;101020.31;;;1.24;95.98
50684;BME280;36654;45.042;38.994;2023-02-14T14:45:28;100995.03;;;1.23;96.25
50684;BME280;36654;45.042;38.994;2023-02-14T14:47:57;101010.88;;;1.26;96.58
50684;BME280;36654;45.042;38.994;2023-02-14T14:50:29;101003.13;;;1.27;96.74
50684;BME280;36654;45.042;38.994;2023-02-14T14:53:02;100990.13;;;1.29;97.27
50684;BME280;36654;45.042;38.994;2023-02-14T14:55:32;100972.50;;;1.25;97.69
50684;BME280;36654;45.042;38.994;2023-02-14T14:57:59;100995.00;;;1.39;97.55
50684;BME280;36654;45.042;38.994;2023-02-14T15:00:27;101004.66;;;1.40;97.73
50684;BME280;36654;45.042;38.994;2023-02-14T15:05:34;100982.13;;;1.42;98.04
50684;BME280;36654;45.042;38.994;2023-02-14T15:14:10;100990.59;;;1.38;98.47
50684;BME280;36654;45.042;38.994;2023-02-14T15:16:45;100988.25;;;1.43;98.78
50684;BME280;36654;45.042;38.994;2023-02-14T15:21:41;100974.94;;;1.38;98.80
50684;BME280;36654;45.042;38.994;2023-02-14T15:24:12;100993.22;;;1.38;99.03
50684;BME280;36654;45.042;38.994;2023-02-14T15:26:42;100993.78;;;1.49;98.97
50684;BME280;36654;45.042;38.994;2023-02-14T15:29:20;100987.66;;;1.48;99.18
50684;BME280;36654;45.042;38.994;2023-02-14T15:31:47;100978.59;;;1.42;99.35
50684;BME280;36654;45.042;38.994;2023-02-14T15:34:13;100983.25;;;1.47;99.47
50684;BME280;36654;45.042;38.994;2023-02-14T15:36:40;100975.41;;;1.47;99.37
50684;BME280;36654;45.042;38.994;2023-02-14T15:39:15;100935.94;;;1.25;99.51
50684;BME280;36654;45.042;38.994;2023-02-14T15:41:43;100983.91;;;1.43;99.70
50684;BME280;36654;45.042;38.994;2023-02-14T15:44:18;100988.53;;;1.49;99.66
50684;BME280;36654;45.042;38.994;2023-02-14T15:46:44;100978.34;;;1.54;99.85